Oak Grove, Wisconsin
Current Conditions -  °F | °C
As of 4:11 PM on Tuesday 25 Nov 2014 (Local Time) from KRGK Reporting Station
Overcast Overcast  
Wind Chill: 25°   Ceiling: 5500
Heat Index: 25°   Visibility: 10mi
Dew Point: 16°   Wind: 0mph
Humidity: 69%   Direction: NA
Pressure: 30.05"   Gusts: NA
Location:  44.7392°N, 92.6641°W
Report Text: KRGK 252211Z AUTO 00000KT 10SM OVC055 M04/M09 A3005 RMK AO2
Loading
Personal Weather Stations






























Interactive Weather Map New forecast layout! Learn more

10-Day Weather Forecast

Advertisements
Track Severe Weather on mobile